createdAt,value
2022-10-28T00:00:00.879Z,2.50
2022-10-28T00:00:10.666Z,2.60
2022-10-28T00:00:20.657Z,2.50
2022-10-28T00:00:30.753Z,2.60
2022-10-28T00:00:40.891Z,2.40
2022-10-28T00:00:50.682Z,2.50
2022-10-28T00:01:00.802Z,2.30
2022-10-28T00:01:10.976Z,2.30
2022-10-28T00:01:20.798Z,2.20
2022-10-28T00:01:30.711Z,2.30
2022-10-28T00:01:40.784Z,2.40
2022-10-28T00:01:50.666Z,2.40
2022-10-28T00:02:00.755Z,2.60
2022-10-28T00:02:10.688Z,2.60
2022-10-28T00:02:21.056Z,2.50
2022-10-28T00:02:30.699Z,2.30
2022-10-28T00:02:40.852Z,2.50
2022-10-28T00:02:51.130Z,2.70
2022-10-28T00:03:00.900Z,2.80
2022-10-28T00:03:10.653Z,2.80
2022-10-28T00:03:20.829Z,2.70
2022-10-28T00:03:30.679Z,2.70
2022-10-28T00:03:40.779Z,2.70
2022-10-28T00:03:50.882Z,2.60
2022-10-28T00:04:00.851Z,2.60
2022-10-28T00:04:10.762Z,2.40
2022-10-28T00:04:20.955Z,2.60
2022-10-28T00:04:40.751Z,2.70
2022-10-28T00:04:50.660Z,2.60
2022-10-28T00:05:00.617Z,2.60
2022-10-28T00:05:10.661Z,2.70
2022-10-28T00:05:20.879Z,2.60
2022-10-28T00:05:30.918Z,2.60
2022-10-28T00:05:40.945Z,2.40
2022-10-28T00:05:50.887Z,2.60
2022-10-28T00:06:00.710Z,2.60
2022-10-28T00:06:10.837Z,2.60
2022-10-28T00:06:20.748Z,2.30
2022-10-28T00:06:30.628Z,2.30
2022-10-28T00:06:40.719Z,2.30
2022-10-28T00:06:50.656Z,2.50
2022-10-28T00:07:00.637Z,2.60
2022-10-28T00:07:10.829Z,2.70
2022-10-28T00:07:20.743Z,2.50
2022-10-28T00:07:30.841Z,2.50
2022-10-28T00:07:40.802Z,2.40
2022-10-28T00:07:50.955Z,2.30
2022-10-28T00:08:00.881Z,2.30
2022-10-28T00:08:10.710Z,2.30
2022-10-28T00:08:20.616Z,2.40
2022-10-28T00:08:30.618Z,2.50
2022-10-28T00:08:40.765Z,2.40
2022-10-28T00:08:50.688Z,2.40
2022-10-28T00:09:00.789Z,2.30
2022-10-28T00:09:12.312Z,2.30
2022-10-28T00:09:20.618Z,2.50
2022-10-28T00:09:30.663Z,2.90
2022-10-28T00:09:40.832Z,2.90
2022-10-28T00:09:50.883Z,2.80
2022-10-28T00:10:00.614Z,2.60
2022-10-28T00:10:10.760Z,2.60
2022-10-28T00:10:20.661Z,2.50
2022-10-28T00:10:30.806Z,2.30
2022-10-28T00:10:40.770Z,2.30
2022-10-28T00:10:50.702Z,2.40
2022-10-28T00:11:00.748Z,2.50
2022-10-28T00:11:10.713Z,2.50
2022-10-28T00:11:20.681Z,2.40
2022-10-28T00:11:30.696Z,2.40
2022-10-28T00:11:40.665Z,2.40
2022-10-28T00:11:50.644Z,2.50
2022-10-28T00:12:00.758Z,2.50
2022-10-28T00:12:10.631Z,2.40
2022-10-28T00:12:20.714Z,2.20
2022-10-28T00:12:30.813Z,2.30
2022-10-28T00:12:40.790Z,2.40
2022-10-28T00:12:50.780Z,2.40
2022-10-28T00:13:00.636Z,2.40
2022-10-28T00:13:10.882Z,2.30
2022-10-28T00:13:20.732Z,2.30
2022-10-28T00:13:30.638Z,2.20
2022-10-28T00:13:40.824Z,2.20
2022-10-28T00:13:50.925Z,2.50
2022-10-28T00:14:00.733Z,2.50
2022-10-28T00:14:10.817Z,2.50
2022-10-28T00:14:20.770Z,2.60
2022-10-28T00:14:30.797Z,2.90
2022-10-28T00:14:40.710Z,2.80
2022-10-28T00:14:50.643Z,2.50
2022-10-28T00:15:00.779Z,2.30
2022-10-28T00:15:10.719Z,2.50
2022-10-28T00:15:20.708Z,2.50
2022-10-28T00:15:30.837Z,2.50
2022-10-28T00:15:40.650Z,2.40
2022-10-28T00:15:50.655Z,2.50
2022-10-28T00:16:00.809Z,2.40
2022-10-28T00:16:10.616Z,2.40
2022-10-28T00:16:20.691Z,2.40
2022-10-28T00:16:30.739Z,2.40
2022-10-28T00:16:40.629Z,2.40
2022-10-28T00:16:50.684Z,2.30
2022-10-28T00:17:00.738Z,2.60
2022-10-28T00:17:10.742Z,2.70
2022-10-28T00:17:20.864Z,2.90
2022-10-28T00:17:30.857Z,2.70
2022-10-28T00:17:40.656Z,2.70
2022-10-28T00:17:50.973Z,2.60
2022-10-28T00:18:00.605Z,2.60
2022-10-28T00:18:10.915Z,2.50
2022-10-28T00:18:20.756Z,2.50
2022-10-28T00:18:30.860Z,2.30
2022-10-28T00:18:40.851Z,2.20
2022-10-28T00:18:50.685Z,2.00
2022-10-28T00:19:00.874Z,2.40
2022-10-28T00:19:10.767Z,2.50
2022-10-28T00:19:20.840Z,2.70
2022-10-28T00:19:30.724Z,2.50
2022-10-28T00:19:40.785Z,2.40
2022-10-28T00:19:50.808Z,2.40
2022-10-28T00:20:00.656Z,2.50
2022-10-28T00:20:10.714Z,2.50
2022-10-28T00:20:20.663Z,2.40
2022-10-28T00:20:30.790Z,2.30
2022-10-28T00:20:40.859Z,2.40
2022-10-28T00:20:50.829Z,2.50
2022-10-28T00:21:00.667Z,2.50
2022-10-28T00:21:10.612Z,2.40
2022-10-28T00:21:20.766Z,2.30
2022-10-28T00:21:30.631Z,2.20
2022-10-28T00:21:40.653Z,2.30
2022-10-28T00:21:50.918Z,2.50
2022-10-28T00:22:00.769Z,2.50
2022-10-28T00:22:10.610Z,2.40
2022-10-28T00:22:20.608Z,2.20
2022-10-28T00:22:30.755Z,2.20
2022-10-28T00:22:40.677Z,2.30
2022-10-28T00:22:50.648Z,2.60
2022-10-28T00:23:00.813Z,2.80
2022-10-28T00:23:10.849Z,2.60
2022-10-28T00:23:20.619Z,2.40
2022-10-28T00:23:30.897Z,2.40
2022-10-28T00:23:40.819Z,2.50
2022-10-28T00:23:50.773Z,2.50
2022-10-28T00:24:00.790Z,2.20
2022-10-28T00:24:10.927Z,2.10
2022-10-28T00:24:20.701Z,2.30
2022-10-28T00:24:30.972Z,2.50
2022-10-28T00:24:40.615Z,2.50
2022-10-28T00:24:50.821Z,2.40
2022-10-28T00:25:00.624Z,2.30
2022-10-28T00:25:10.765Z,2.40
2022-10-28T00:25:20.898Z,2.30
2022-10-28T00:25:30.609Z,2.30
2022-10-28T00:25:40.873Z,2.30
2022-10-28T00:25:50.667Z,2.30
2022-10-28T00:26:00.725Z,2.30
2022-10-28T00:26:10.694Z,2.30
2022-10-28T00:26:20.899Z,2.20
2022-10-28T00:26:30.633Z,2.10
2022-10-28T00:26:40.834Z,2.00
2022-10-28T00:26:50.814Z,2.10
2022-10-28T00:27:00.709Z,2.10
2022-10-28T00:27:10.650Z,2.40
2022-10-28T00:27:20.748Z,2.20
2022-10-28T00:27:30.618Z,2.40
2022-10-28T00:27:40.805Z,2.30
2022-10-28T00:27:50.929Z,2.50
2022-10-28T00:28:00.816Z,2.40
2022-10-28T00:28:10.715Z,2.40
2022-10-28T00:28:20.902Z,2.40
2022-10-28T00:28:30.921Z,2.40
2022-10-28T00:28:40.662Z,2.30
2022-10-28T00:28:50.877Z,2.40
2022-10-28T00:29:00.642Z,2.30
2022-10-28T00:29:10.860Z,2.20
2022-10-28T00:29:20.722Z,2.10
2022-10-28T00:29:30.774Z,2.00
2022-10-28T00:29:40.853Z,2.20
2022-10-28T00:29:50.808Z,2.50
2022-10-28T00:30:00.755Z,2.40
2022-10-28T00:30:10.654Z,2.30
2022-10-28T00:30:20.849Z,2.20
2022-10-28T00:30:40.854Z,2.40
2022-10-28T00:30:50.825Z,2.30
2022-10-28T00:31:00.770Z,2.40
2022-10-28T00:31:10.789Z,2.10
2022-10-28T00:31:20.848Z,2.20
2022-10-28T00:31:30.770Z,2.10
2022-10-28T00:31:40.648Z,2.20
2022-10-28T00:31:50.837Z,2.20
2022-10-28T00:32:00.743Z,2.50
2022-10-28T00:32:10.917Z,2.40
2022-10-28T00:32:20.815Z,2.30
2022-10-28T00:32:30.880Z,2.00
2022-10-28T00:32:40.895Z,2.00
2022-10-28T00:32:51.128Z,2.10
2022-10-28T00:33:00.815Z,2.00
2022-10-28T00:33:10.896Z,2.10
2022-10-28T00:33:20.825Z,2.00
2022-10-28T00:33:30.660Z,2.10
2022-10-28T00:33:40.854Z,2.20
2022-10-28T00:33:50.728Z,2.10
2022-10-28T00:34:00.673Z,2.10
2022-10-28T00:34:10.889Z,1.90
2022-10-28T00:34:20.706Z,2.00
2022-10-28T00:34:30.808Z,1.90
2022-10-28T00:34:40.630Z,2.20
2022-10-28T00:34:50.741Z,2.10
2022-10-28T00:35:00.833Z,2.00
2022-10-28T00:35:10.801Z,1.80
2022-10-28T00:35:20.729Z,1.80
2022-10-28T00:35:30.614Z,2.30
2022-10-28T00:35:40.831Z,2.40
2022-10-28T00:35:50.765Z,2.60
2022-10-28T00:36:04.260Z,2.20
2022-10-28T00:36:10.945Z,2.20
2022-10-28T00:36:20.838Z,2.30
2022-10-28T00:36:30.949Z,2.20
2022-10-28T00:36:40.617Z,2.30
2022-10-28T00:36:50.874Z,2.20
2022-10-28T00:37:00.870Z,2.20
2022-10-28T00:37:10.701Z,2.10
2022-10-28T00:37:20.823Z,1.90
2022-10-28T00:37:30.641Z,2.10
2022-10-28T00:37:40.786Z,2.10
2022-10-28T00:37:50.919Z,2.30
2022-10-28T00:38:00.712Z,2.30
2022-10-28T00:38:10.868Z,2.40
2022-10-28T00:38:20.862Z,2.30
2022-10-28T00:38:30.664Z,2.30
2022-10-28T00:38:40.715Z,2.20
2022-10-28T00:38:50.635Z,2.20
2022-10-28T00:39:00.812Z,2.30
2022-10-28T00:39:10.722Z,2.30
2022-10-28T00:39:20.768Z,2.30
2022-10-28T00:39:30.723Z,2.10
2022-10-28T00:39:40.650Z,2.00
2022-10-28T00:39:50.848Z,2.10
2022-10-28T00:40:00.802Z,2.20
2022-10-28T00:40:10.806Z,2.30
2022-10-28T00:40:20.715Z,2.20
2022-10-28T00:40:30.640Z,2.00
2022-10-28T00:40:40.841Z,2.00
2022-10-28T00:40:50.737Z,1.90
2022-10-28T00:41:00.760Z,2.00
2022-10-28T00:41:10.722Z,2.10
2022-10-28T00:41:20.719Z,2.00
2022-10-28T00:41:30.870Z,2.10
2022-10-28T00:41:40.695Z,1.90
2022-10-28T00:41:50.824Z,2.00
2022-10-28T00:42:00.659Z,1.90
2022-10-28T00:42:10.682Z,1.90
2022-10-28T00:42:20.900Z,1.90
2022-10-28T00:42:30.672Z,2.00
2022-10-28T00:42:40.705Z,2.10
2022-10-28T00:42:51.077Z,2.40
2022-10-28T00:43:00.883Z,2.30
2022-10-28T00:43:10.974Z,2.40
2022-10-28T00:43:20.745Z,2.20
2022-10-28T00:43:30.667Z,2.30
2022-10-28T00:43:40.755Z,2.20
2022-10-28T00:43:50.856Z,2.00
2022-10-28T00:44:00.910Z,2.00
2022-10-28T00:44:10.862Z,2.10
2022-10-28T00:44:20.894Z,2.20
2022-10-28T00:44:30.824Z,2.10
2022-10-28T00:44:40.660Z,2.00
2022-10-28T00:44:50.746Z,2.00
2022-10-28T00:45:00.661Z,2.00
2022-10-28T00:45:10.823Z,2.10
2022-10-28T00:45:20.668Z,2.20
2022-10-28T00:45:30.686Z,2.30
2022-10-28T00:45:40.727Z,2.30
2022-10-28T00:45:50.709Z,2.10
2022-10-28T00:46:00.689Z,2.10
2022-10-28T00:46:10.643Z,2.20
2022-10-28T00:46:20.769Z,2.40
2022-10-28T00:46:30.676Z,2.20
2022-10-28T00:46:40.789Z,2.10
2022-10-28T00:46:50.777Z,2.00
2022-10-28T00:47:00.801Z,2.20
2022-10-28T00:47:10.667Z,2.30
2022-10-28T00:47:20.674Z,2.40
2022-10-28T00:47:30.714Z,2.20
2022-10-28T00:47:40.874Z,2.00
2022-10-28T00:47:51.182Z,2.00
2022-10-28T00:48:00.734Z,2.10
2022-10-28T00:48:10.866Z,2.20
2022-10-28T00:48:20.818Z,2.40
2022-10-28T00:48:30.867Z,2.30
2022-10-28T00:48:40.734Z,2.20
2022-10-28T00:48:50.705Z,2.00
2022-10-28T00:49:00.666Z,2.00
2022-10-28T00:49:10.749Z,2.20
2022-10-28T00:49:20.814Z,2.30
2022-10-28T00:49:30.658Z,2.30
2022-10-28T00:49:40.734Z,2.00
2022-10-28T00:49:50.773Z,2.00
2022-10-28T00:50:00.664Z,2.00
2022-10-28T00:50:10.942Z,2.30
2022-10-28T00:50:20.723Z,2.30
2022-10-28T00:50:30.850Z,2.40
2022-10-28T00:50:40.735Z,2.40
2022-10-28T00:50:50.877Z,2.30
2022-10-28T00:51:00.806Z,2.30
2022-10-28T00:51:10.955Z,2.20
2022-10-28T00:51:20.646Z,2.40
2022-10-28T00:51:30.765Z,2.30
2022-10-28T00:51:40.746Z,2.20
2022-10-28T00:51:50.787Z,1.90
2022-10-28T00:52:00.814Z,2.00
2022-10-28T00:52:10.714Z,2.20
2022-10-28T00:52:20.638Z,2.30
2022-10-28T00:52:30.921Z,2.40
2022-10-28T00:52:40.856Z,2.20
2022-10-28T00:52:50.719Z,2.30
2022-10-28T00:53:00.696Z,2.10
2022-10-28T00:53:10.881Z,2.20
2022-10-28T00:53:20.808Z,2.10
2022-10-28T00:53:30.826Z,2.10
2022-10-28T00:53:40.874Z,2.10
2022-10-28T00:53:50.886Z,2.30
2022-10-28T00:54:00.647Z,2.30
2022-10-28T00:54:10.849Z,2.30
2022-10-28T00:54:20.842Z,2.10
2022-10-28T00:54:30.889Z,1.90
2022-10-28T00:54:40.875Z,1.80
2022-10-28T00:54:50.644Z,1.80
2022-10-28T00:55:00.944Z,2.00
2022-10-28T00:55:10.725Z,2.10
2022-10-28T00:55:20.849Z,2.20
2022-10-28T00:55:30.896Z,2.40
2022-10-28T00:55:40.798Z,2.30
2022-10-28T00:55:50.864Z,2.20
2022-10-28T00:56:00.809Z,2.10
2022-10-28T00:56:10.672Z,2.20
2022-10-28T00:56:20.722Z,2.30
2022-10-28T00:56:30.835Z,2.30
2022-10-28T00:56:40.778Z,2.00
2022-10-28T00:56:50.930Z,2.00
2022-10-28T00:57:00.832Z,2.00
2022-10-28T00:57:10.629Z,2.20
2022-10-28T00:57:20.822Z,2.20
2022-10-28T00:57:30.760Z,2.10
2022-10-28T00:57:40.700Z,2.10
2022-10-28T00:57:50.990Z,2.10
2022-10-28T00:58:00.847Z,2.10
2022-10-28T00:58:10.844Z,2.20
2022-10-28T00:58:20.759Z,2.00
2022-10-28T00:58:30.851Z,2.30
2022-10-28T00:58:40.790Z,2.10
2022-10-28T00:58:50.777Z,2.20
2022-10-28T00:59:00.738Z,1.90
2022-10-28T00:59:10.633Z,1.90
2022-10-28T00:59:20.699Z,2.00
2022-10-28T00:59:30.886Z,1.90
2022-10-28T00:59:40.740Z,2.00
2022-10-28T00:59:50.878Z,2.00
2022-10-28T01:00:00.890Z,2.10
2022-10-28T01:00:10.874Z,2.40
2022-10-28T01:00:20.629Z,2.30
2022-10-28T01:00:30.779Z,2.40
2022-10-28T01:00:40.713Z,2.10
2022-10-28T01:00:50.885Z,2.00
2022-10-28T01:01:00.678Z,2.20
2022-10-28T01:01:10.860Z,2.10
2022-10-28T01:01:21.009Z,2.10
2022-10-28T01:01:30.871Z,1.80
2022-10-28T01:01:40.785Z,1.90
2022-10-28T01:01:50.887Z,2.20
2022-10-28T01:02:00.968Z,2.40
2022-10-28T01:02:10.860Z,2.30
2022-10-28T01:02:20.759Z,2.20
2022-10-28T01:02:30.992Z,2.10
2022-10-28T01:02:41.018Z,2.10
2022-10-28T01:02:50.906Z,2.10
2022-10-28T01:03:00.632Z,1.80
2022-10-28T01:03:10.879Z,1.60
2022-10-28T01:03:20.706Z,1.70
2022-10-28T01:03:30.716Z,1.70
2022-10-28T01:03:40.699Z,2.00
2022-10-28T01:03:50.728Z,1.90
2022-10-28T01:04:00.727Z,2.10
2022-10-28T01:04:10.879Z,1.80
2022-10-28T01:04:20.783Z,2.00
2022-10-28T01:04:30.897Z,2.00
2022-10-28T01:04:40.783Z,2.20
2022-10-28T01:04:50.883Z,2.10
2022-10-28T01:05:00.649Z,2.20
2022-10-28T01:05:10.616Z,2.20
2022-10-28T01:05:20.878Z,2.20
2022-10-28T01:05:30.658Z,2.20
2022-10-28T01:05:40.800Z,2.50
2022-10-28T01:05:50.803Z,2.40
2022-10-28T01:06:00.813Z,2.50
2022-10-28T01:06:10.633Z,2.10
2022-10-28T01:06:20.877Z,2.20
2022-10-28T01:06:30.854Z,2.10
2022-10-28T01:06:40.733Z,2.10
2022-10-28T01:06:50.831Z,2.30
2022-10-28T01:07:00.859Z,2.30
2022-10-28T01:07:10.856Z,2.40
2022-10-28T01:07:20.643Z,2.20
2022-10-28T01:07:30.905Z,2.20
2022-10-28T01:07:40.763Z,2.10
2022-10-28T01:07:51.102Z,2.10
2022-10-28T01:08:00.669Z,2.00
2022-10-28T01:08:10.641Z,2.20
2022-10-28T01:08:20.906Z,2.30
2022-10-28T01:08:30.832Z,2.40
2022-10-28T01:08:40.795Z,2.20
2022-10-28T01:08:50.636Z,2.10
2022-10-28T01:09:00.774Z,2.10
2022-10-28T01:09:10.871Z,1.90
2022-10-28T01:09:20.674Z,2.00
2022-10-28T01:09:30.654Z,2.10
2022-10-28T01:09:40.793Z,2.50
2022-10-28T01:09:50.653Z,2.60
2022-10-28T01:10:00.697Z,2.50
2022-10-28T01:10:10.648Z,2.20
2022-10-28T01:10:20.733Z,2.10
2022-10-28T01:10:30.701Z,2.10
2022-10-28T01:10:40.886Z,2.20
2022-10-28T01:10:50.870Z,2.10
2022-10-28T01:11:00.684Z,2.20
2022-10-28T01:11:10.715Z,2.20
2022-10-28T01:11:20.894Z,2.20
2022-10-28T01:11:30.656Z,2.20
2022-10-28T01:11:40.686Z,2.20
2022-10-28T01:11:50.818Z,2.30
2022-10-28T01:12:00.804Z,2.20
2022-10-28T01:12:10.728Z,2.20
2022-10-28T01:12:20.874Z,2.30
2022-10-28T01:12:30.807Z,2.20
2022-10-28T01:12:40.885Z,2.30
2022-10-28T01:12:51.114Z,2.30
2022-10-28T01:13:00.663Z,2.50
2022-10-28T01:13:10.914Z,2.40
2022-10-28T01:13:20.693Z,2.40
2022-10-28T01:13:30.819Z,2.10
2022-10-28T01:13:40.822Z,2.20
2022-10-28T01:13:50.832Z,2.30
2022-10-28T01:14:00.671Z,2.40
2022-10-28T01:14:10.719Z,2.20
2022-10-28T01:14:20.726Z,2.10
2022-10-28T01:14:30.650Z,2.10
2022-10-28T01:14:40.681Z,2.20
2022-10-28T01:14:50.939Z,2.20
2022-10-28T01:15:00.734Z,2.20
2022-10-28T01:15:10.829Z,2.10
2022-10-28T01:15:20.865Z,2.10
2022-10-28T01:15:30.631Z,2.10
2022-10-28T01:15:40.672Z,2.00
2022-10-28T01:15:50.648Z,1.80
2022-10-28T01:16:00.654Z,1.90
2022-10-28T01:16:10.812Z,1.80
2022-10-28T01:16:20.828Z,1.80
2022-10-28T01:16:30.802Z,2.00
2022-10-28T01:16:40.901Z,1.90
2022-10-28T01:16:50.743Z,2.20
2022-10-28T01:17:00.880Z,2.00
2022-10-28T01:17:11.047Z,2.10
2022-10-28T01:17:20.800Z,2.10
2022-10-28T01:17:30.811Z,2.00
2022-10-28T01:17:40.695Z,2.20
2022-10-28T01:17:50.859Z,2.10
2022-10-28T01:18:00.687Z,2.00
2022-10-28T01:18:10.707Z,2.00
2022-10-28T01:18:20.796Z,2.00
2022-10-28T01:18:30.793Z,2.10
2022-10-28T01:18:40.815Z,1.90
2022-10-28T01:18:50.908Z,2.00
2022-10-28T01:19:00.743Z,2.10
2022-10-28T01:19:10.604Z,2.20
2022-10-28T01:19:20.805Z,2.10
2022-10-28T01:19:30.800Z,2.00
2022-10-28T01:19:40.846Z,1.90
2022-10-28T01:19:50.811Z,2.00
2022-10-28T01:20:00.733Z,2.00
2022-10-28T01:20:10.643Z,1.90
2022-10-28T01:20:20.728Z,1.70
2022-10-28T01:20:30.714Z,1.80
2022-10-28T01:20:42.447Z,1.80
2022-10-28T01:20:50.750Z,2.00
2022-10-28T01:21:00.825Z,2.00
2022-10-28T01:21:10.754Z,2.00
2022-10-28T01:21:20.647Z,1.90
2022-10-28T01:21:30.881Z,2.00
2022-10-28T01:21:40.783Z,2.10
2022-10-28T01:21:50.763Z,2.10
2022-10-28T01:22:00.896Z,2.10
2022-10-28T01:22:10.806Z,2.10
2022-10-28T01:22:20.968Z,2.20
2022-10-28T01:22:40.626Z,2.10
2022-10-28T01:22:51.056Z,2.00
2022-10-28T01:23:00.634Z,1.90
2022-10-28T01:23:10.853Z,2.00
2022-10-28T01:23:20.847Z,1.90
2022-10-28T01:23:30.663Z,2.00
2022-10-28T01:23:40.664Z,2.10
2022-10-28T01:23:50.616Z,2.20
2022-10-28T01:24:00.876Z,2.10
2022-10-28T01:24:10.621Z,2.00
2022-10-28T01:24:20.843Z,2.10
2022-10-28T01:24:30.848Z,2.00
2022-10-28T01:24:40.876Z,2.10
2022-10-28T01:24:50.865Z,1.90
2022-10-28T01:25:00.772Z,2.00
2022-10-28T01:25:10.786Z,1.80
2022-10-28T01:25:20.758Z,1.80
2022-10-28T01:25:30.807Z,2.00
2022-10-28T01:25:40.720Z,2.00
2022-10-28T01:25:50.822Z,2.00
2022-10-28T01:26:00.857Z,1.90
2022-10-28T01:26:10.744Z,2.00
2022-10-28T01:26:20.680Z,2.10
2022-10-28T01:26:30.800Z,2.00
2022-10-28T01:26:40.709Z,2.00
2022-10-28T01:26:50.861Z,1.80
2022-10-28T01:27:00.703Z,2.00
2022-10-28T01:27:10.897Z,2.20
2022-10-28T01:27:20.701Z,2.20
2022-10-28T01:27:30.641Z,2.10
2022-10-28T01:27:40.822Z,1.90
2022-10-28T01:27:50.787Z,1.90
2022-10-28T01:28:00.795Z,2.00
2022-10-28T01:28:10.755Z,2.00
2022-10-28T01:28:20.740Z,1.80
2022-10-28T01:28:30.803Z,1.90
2022-10-28T01:28:40.861Z,2.10
2022-10-28T01:28:50.671Z,2.30
2022-10-28T01:29:00.708Z,2.20
2022-10-28T01:29:10.654Z,2.00
2022-10-28T01:29:20.740Z,1.90
2022-10-28T01:29:30.691Z,2.00
2022-10-28T01:29:40.799Z,1.80
2022-10-28T01:29:50.728Z,1.70
2022-10-28T01:30:00.863Z,1.80
2022-10-28T01:30:10.931Z,1.90
2022-10-28T01:30:20.623Z,1.90
2022-10-28T01:30:30.840Z,1.90
2022-10-28T01:30:40.819Z,1.90
2022-10-28T01:30:50.858Z,2.10
2022-10-28T01:31:00.736Z,2.10
2022-10-28T01:31:10.894Z,2.10
2022-10-28T01:31:20.790Z,2.10
2022-10-28T01:31:30.793Z,2.10
2022-10-28T01:31:40.632Z,2.20
2022-10-28T01:31:50.866Z,2.10
2022-10-28T01:32:00.735Z,2.10
2022-10-28T01:32:10.761Z,1.90
2022-10-28T01:32:20.886Z,2.00
2022-10-28T01:32:30.688Z,2.00
2022-10-28T01:32:40.874Z,2.10
2022-10-28T01:32:51.097Z,2.20
2022-10-28T01:33:00.730Z,2.10
2022-10-28T01:33:10.686Z,2.00
2022-10-28T01:33:20.714Z,1.80
2022-10-28T01:33:30.744Z,1.90
2022-10-28T01:33:40.690Z,1.80
2022-10-28T01:33:50.874Z,1.70
2022-10-28T01:34:00.787Z,1.70
2022-10-28T01:34:10.783Z,2.00
2022-10-28T01:34:20.774Z,2.00
2022-10-28T01:34:30.803Z,2.00
2022-10-28T01:34:40.794Z,2.00
2022-10-28T01:34:50.830Z,2.10
2022-10-28T01:35:00.666Z,2.30
2022-10-28T01:35:10.698Z,2.20
2022-10-28T01:35:20.972Z,2.30
2022-10-28T01:35:40.653Z,2.10
2022-10-28T01:35:50.647Z,1.80
2022-10-28T01:36:00.640Z,1.90
2022-10-28T01:36:10.712Z,1.90
2022-10-28T01:36:20.914Z,2.00
2022-10-28T01:36:30.620Z,2.10
2022-10-28T01:36:40.689Z,2.10
2022-10-28T01:36:50.870Z,2.00
2022-10-28T01:37:00.912Z,2.00
2022-10-28T01:37:10.657Z,2.00
2022-10-28T01:37:20.730Z,1.90
2022-10-28T01:37:30.885Z,1.90
2022-10-28T01:37:40.760Z,1.80
2022-10-28T01:37:50.918Z,1.80
2022-10-28T01:38:00.811Z,2.00
2022-10-28T01:38:10.802Z,2.10
2022-10-28T01:38:20.854Z,2.10
2022-10-28T01:38:30.615Z,1.90
2022-10-28T01:38:40.659Z,1.90
2022-10-28T01:38:50.740Z,1.90
2022-10-28T01:39:00.784Z,1.80
2022-10-28T01:39:10.807Z,1.80
2022-10-28T01:39:20.656Z,2.10
2022-10-28T01:39:30.670Z,2.40
2022-10-28T01:39:40.748Z,2.40
2022-10-28T01:39:50.747Z,2.20
2022-10-28T01:40:00.618Z,2.10
2022-10-28T01:40:10.799Z,2.10
2022-10-28T01:40:20.672Z,2.00
2022-10-28T01:40:30.698Z,1.90
2022-10-28T01:40:40.699Z,1.90
2022-10-28T01:40:50.805Z,2.00
2022-10-28T01:41:00.604Z,2.00
2022-10-28T01:41:10.916Z,2.00
2022-10-28T01:41:20.815Z,1.80
2022-10-28T01:41:30.745Z,2.00
2022-10-28T01:41:40.899Z,1.80
2022-10-28T01:41:50.854Z,1.90
2022-10-28T01:42:00.890Z,1.90
2022-10-28T01:42:10.664Z,2.00
2022-10-28T01:42:20.714Z,2.00
2022-10-28T01:42:30.859Z,2.10
2022-10-28T01:42:40.776Z,2.10
2022-10-28T01:42:50.703Z,2.10
2022-10-28T01:43:00.696Z,1.90
2022-10-28T01:43:10.888Z,1.80
2022-10-28T01:43:20.840Z,1.90
2022-10-28T01:43:30.791Z,1.90
2022-10-28T01:43:40.738Z,1.90
2022-10-28T01:43:50.834Z,1.90
2022-10-28T01:44:00.606Z,2.00
2022-10-28T01:44:10.663Z,2.10
2022-10-28T01:44:20.633Z,2.10
2022-10-28T01:44:30.838Z,2.10
2022-10-28T01:44:40.838Z,2.00
2022-10-28T01:44:50.612Z,2.00
2022-10-28T01:45:00.838Z,1.90
2022-10-28T01:45:10.808Z,1.80
2022-10-28T01:45:20.919Z,1.80
2022-10-28T01:45:30.639Z,1.80
2022-10-28T01:45:40.712Z,1.70
2022-10-28T01:45:50.894Z,1.70
2022-10-28T01:46:00.934Z,1.70
2022-10-28T01:46:10.758Z,1.80
2022-10-28T01:46:20.861Z,1.70
2022-10-28T01:46:30.721Z,1.60
2022-10-28T01:46:40.638Z,1.50
2022-10-28T01:46:50.816Z,2.00
2022-10-28T01:47:00.795Z,2.10
2022-10-28T01:47:10.682Z,2.20
2022-10-28T01:47:20.827Z,1.90
2022-10-28T01:47:30.651Z,1.90
2022-10-28T01:47:40.623Z,2.00
2022-10-28T01:47:51.134Z,2.00
2022-10-28T01:48:00.845Z,1.90
2022-10-28T01:48:10.754Z,1.80
2022-10-28T01:48:20.649Z,1.80
2022-10-28T01:48:30.680Z,1.70
2022-10-28T01:48:40.679Z,1.80
2022-10-28T01:48:50.625Z,1.90
2022-10-28T01:49:00.724Z,1.90
2022-10-28T01:49:10.910Z,1.70
2022-10-28T01:49:20.884Z,1.90
2022-10-28T01:49:30.872Z,2.00
2022-10-28T01:49:40.685Z,2.00
2022-10-28T01:49:50.848Z,1.80
2022-10-28T01:50:00.882Z,1.70
2022-10-28T01:50:10.857Z,1.70
2022-10-28T01:50:20.879Z,1.70
2022-10-28T01:50:30.786Z,1.70
2022-10-28T01:50:40.798Z,1.70
2022-10-28T01:50:50.608Z,2.00
2022-10-28T01:51:00.632Z,1.90
2022-10-28T01:51:10.727Z,2.00
2022-10-28T01:51:20.814Z,1.80
2022-10-28T01:51:30.654Z,1.80
2022-10-28T01:51:40.709Z,1.90
2022-10-28T01:51:50.803Z,1.80
2022-10-28T01:52:00.756Z,1.80
2022-10-28T01:52:10.853Z,1.80
2022-10-28T01:52:20.659Z,1.90
2022-10-28T01:52:30.838Z,1.80
2022-10-28T01:52:40.787Z,1.80
2022-10-28T01:52:51.088Z,1.80
2022-10-28T01:53:00.864Z,2.00
2022-10-28T01:53:10.833Z,2.10
2022-10-28T01:53:20.638Z,2.10
2022-10-28T01:53:30.629Z,2.00
2022-10-28T01:53:40.758Z,1.90
2022-10-28T01:53:50.907Z,1.60
2022-10-28T01:54:00.608Z,1.70
2022-10-28T01:54:10.768Z,1.70
2022-10-28T01:54:20.784Z,1.90
2022-10-28T01:54:30.743Z,1.80
2022-10-28T01:54:40.871Z,1.80
2022-10-28T01:54:50.799Z,1.70
2022-10-28T01:55:00.707Z,2.00
2022-10-28T01:55:10.912Z,2.10
2022-10-28T01:55:20.751Z,2.20
2022-10-28T01:55:30.707Z,1.90
2022-10-28T01:55:40.717Z,1.90
2022-10-28T01:55:50.714Z,1.80
2022-10-28T01:56:00.729Z,2.10
2022-10-28T01:56:10.882Z,2.10
2022-10-28T01:56:20.764Z,2.00
2022-10-28T01:56:30.640Z,1.90
2022-10-28T01:56:40.715Z,1.80
2022-10-28T01:56:50.713Z,2.00
2022-10-28T01:57:00.859Z,2.00
2022-10-28T01:57:10.922Z,2.00
2022-10-28T01:57:20.885Z,1.80
2022-10-28T01:57:30.858Z,1.90
2022-10-28T01:57:40.678Z,1.70
2022-10-28T01:57:50.681Z,1.80
2022-10-28T01:58:00.651Z,1.70
2022-10-28T01:58:10.846Z,1.80
2022-10-28T01:58:20.799Z,2.00
2022-10-28T01:58:30.646Z,1.90
2022-10-28T01:58:40.782Z,2.00
2022-10-28T01:58:50.637Z,1.80
2022-10-28T01:59:00.830Z,2.00
2022-10-28T01:59:10.774Z,1.90
2022-10-28T01:59:20.806Z,1.90
2022-10-28T01:59:30.835Z,1.90
2022-10-28T01:59:40.833Z,1.80
2022-10-28T01:59:50.887Z,1.80
2022-10-28T02:00:00.802Z,1.70
2022-10-28T02:00:10.751Z,1.90
2022-10-28T02:00:20.675Z,1.90
2022-10-28T02:00:30.854Z,1.80
2022-10-28T02:00:40.972Z,1.70
2022-10-28T02:00:50.733Z,1.80
2022-10-28T02:01:00.820Z,1.80
2022-10-28T02:01:10.810Z,1.80
2022-10-28T02:01:20.937Z,1.90
2022-10-28T02:01:30.976Z,2.20
2022-10-28T02:01:41.071Z,2.20
2022-10-28T02:01:50.868Z,2.10
2022-10-28T02:02:10.687Z,1.90
2022-10-28T02:02:20.815Z,2.00
2022-10-28T02:02:30.794Z,1.90
2022-10-28T02:02:40.897Z,2.00
2022-10-28T02:02:50.928Z,2.10
2022-10-28T02:03:00.822Z,2.20
2022-10-28T02:03:10.763Z,2.00
2022-10-28T02:03:20.753Z,1.80
2022-10-28T02:03:30.899Z,1.90
2022-10-28T02:03:40.695Z,2.00
2022-10-28T02:03:50.793Z,1.90
2022-10-28T02:04:00.846Z,1.80
2022-10-28T02:04:10.675Z,1.90
2022-10-28T02:04:20.652Z,2.00
2022-10-28T02:04:30.684Z,2.00
2022-10-28T02:04:40.720Z,1.90
2022-10-28T02:04:50.743Z,1.80
2022-10-28T02:05:00.696Z,1.60
2022-10-28T02:05:10.855Z,1.80
2022-10-28T02:05:20.720Z,1.80
2022-10-28T02:05:30.812Z,2.00
2022-10-28T02:05:40.838Z,1.80
2022-10-28T02:05:50.883Z,1.90
2022-10-28T02:06:00.886Z,1.90
2022-10-28T02:06:10.658Z,2.00
2022-10-28T02:06:20.628Z,2.00
2022-10-28T02:06:30.824Z,1.90
2022-10-28T02:06:40.638Z,2.00
2022-10-28T02:06:50.778Z,2.10
2022-10-28T02:07:00.758Z,1.90
2022-10-28T02:07:10.612Z,1.80
2022-10-28T02:07:20.663Z,1.70
2022-10-28T02:07:30.797Z,1.60
2022-10-28T02:07:40.927Z,1.70
2022-10-28T02:07:50.737Z,1.70
2022-10-28T02:08:00.740Z,1.80
2022-10-28T02:08:10.880Z,2.00
2022-10-28T02:08:20.753Z,2.00
2022-10-28T02:08:30.611Z,2.00
2022-10-28T02:08:40.796Z,1.90
2022-10-28T02:08:50.615Z,2.00
2022-10-28T02:09:00.827Z,1.90
2022-10-28T02:09:10.706Z,1.90
2022-10-28T02:09:20.750Z,1.90
2022-10-28T02:09:30.727Z,2.20
2022-10-28T02:09:40.771Z,2.30
2022-10-28T02:09:50.842Z,2.10
2022-10-28T02:10:00.829Z,2.00
2022-10-28T02:10:10.715Z,1.80
2022-10-28T02:10:20.657Z,1.80
2022-10-28T02:10:30.822Z,1.90
2022-10-28T02:10:40.712Z,2.00
2022-10-28T02:10:50.625Z,2.10
2022-10-28T02:11:00.724Z,2.00
2022-10-28T02:11:10.827Z,2.20
2022-10-28T02:11:20.657Z,2.00
2022-10-28T02:11:30.845Z,1.90
2022-10-28T02:11:40.840Z,1.60
2022-10-28T02:11:50.779Z,1.80
2022-10-28T02:12:00.621Z,1.80
2022-10-28T02:12:10.789Z,2.30
2022-10-28T02:12:20.747Z,2.20
2022-10-28T02:12:30.825Z,2.30
2022-10-28T02:12:40.630Z,1.90
2022-10-28T02:12:51.141Z,2.00
2022-10-28T02:13:00.855Z,1.90
2022-10-28T02:13:10.605Z,1.80
2022-10-28T02:13:20.642Z,1.70
2022-10-28T02:13:30.634Z,1.60
2022-10-28T02:13:40.830Z,1.70
2022-10-28T02:13:50.654Z,1.60